Time;durP1;ratioP1;P1;durP2;ratioP2;P2;SDS_P1;SDS_P2;PMS_P1;PMS_P2;Temp;Humidity;BMP_temperature;BMP_pressure;BME280_temperature;BME280_humidity;BME280_pressure;Samples;Min_cycle;Max_cycle;Signal;HPM_P1;HPM_P2
2022/05/14 00:03:31;;;;;;;3.00;0.82;;;;;;;15.80;38.99;98204.03;10495411;28;20052;-74
2022/05/14 00:08:52;;;;;;;2.03;0.40;;;;;;;15.77;39.19;98200.41;10515724;28;20044;-75
2022/05/14 00:14:12;;;;;;;1.80;0.43;;;;;;;15.77;39.32;98196.84;10530655;28;20063;-75
2022/05/14 00:19:33;;;;;;;2.00;0.43;;;;;;;15.72;39.23;98201.50;10502405;28;20402;-76
2022/05/14 00:24:54;;;;;;;1.75;0.40;;;;;;;15.68;39.47;98204.13;10502557;28;20067;-76
2022/05/14 00:30:16;;;;;;;4.82;0.57;;;;;;;15.67;39.38;98203.38;10545206;28;20063;-76
2022/05/14 00:35:37;;;;;;;2.30;0.47;;;;;;;15.70;39.30;98199.31;10502704;28;20072;-75
2022/05/14 00:41:03;;;;;;;2.97;0.50;;;;;;;15.69;39.44;98209.13;10529923;28;20067;-75
2022/05/14 00:46:25;;;;;;;4.80;0.50;;;;;;;15.67;39.39;98209.00;10487304;28;20169;-75
2022/05/14 00:51:46;;;;;;;3.78;0.50;;;;;;;15.67;39.43;98205.47;10515479;28;20141;-75
2022/05/14 00:57:10;;;;;;;4.68;0.60;;;;;;;15.66;39.33;98201.19;10501007;28;20493;-75
2022/05/14 01:02:31;;;;;;;4.20;0.63;;;;;;;15.64;39.07;98193.38;10487423;28;20043;-75
2022/05/14 01:07:53;;;;;;;6.53;0.50;;;;;;;15.57;39.45;98183.09;10514392;28;20048;-74
2022/05/14 01:13:14;;;;;;;4.30;0.85;;;;;;;15.52;39.46;98178.59;10528593;28;20366;-74
2022/05/14 01:18:36;;;;;;;4.63;0.55;;;;;;;15.42;39.66;98183.66;10513607;28;20093;-75
2022/05/14 01:29:57;;;;;;;3.55;0.50;;;;;;;15.33;40.04;98164.88;10516723;28;20040;-75
2022/05/14 01:35:19;;;;;;;2.22;0.50;;;;;;;15.29;40.04;98156.22;10499909;28;20445;-75
2022/05/14 01:40:40;;;;;;;4.93;0.75;;;;;;;15.24;40.32;98163.69;10511786;28;20119;-75
2022/05/14 01:46:01;;;;;;;4.18;0.70;;;;;;;15.25;40.45;98167.22;10512978;28;20052;-75
2022/05/14 01:51:22;;;;;;;3.22;0.70;;;;;;;15.23;40.51;98172.75;10498734;28;20040;-75
2022/05/14 01:56:43;;;;;;;6.40;1.40;;;;;;;15.17;40.75;98164.72;10510148;28;20064;-76
2022/05/14 02:02:08;;;;;;;4.55;0.70;;;;;;;15.16;40.89;98164.00;10494396;28;20072;-76
2022/05/14 02:07:29;;;;;;;4.22;0.95;;;;;;;15.13;40.93;98164.47;10507758;28;20500;-78
2022/05/14 02:12:51;;;;;;;2.78;0.50;;;;;;;15.14;40.90;98177.91;10522461;28;20043;-75
2022/05/14 02:18:13;;;;;;;4.47;0.60;;;;;;;15.07;41.11;98164.88;10516651;28;20505;-76
2022/05/14 02:23:36;;;;;;;6.50;0.50;;;;;;;15.06;40.88;98160.59;10506861;28;20064;-75
2022/05/14 02:28:57;;;;;;;3.72;0.50;;;;;;;15.04;41.04;98160.47;10506700;28;20047;-75
2022/05/14 02:34:17;;;;;;;2.97;0.50;;;;;;;15.05;41.20;98153.50;10493219;28;20500;-76
2022/05/14 02:39:39;;;;;;;3.30;0.88;;;;;;;15.04;40.76;98156.94;10495670;28;20397;-75
2022/05/14 02:45:02;;;;;;;3.65;0.63;;;;;;;15.04;41.13;98157.66;10498354;28;20102;-75
2022/05/14 02:50:22;;;;;;;3.83;0.60;;;;;;;15.02;40.95;98154.75;10511263;28;20470;-75
2022/05/14 02:55:43;;;;;;;2.83;0.52;;;;;;;14.97;41.09;98167.13;10525183;28;20071;-76
2022/05/14 03:01:05;;;;;;;4.00;0.60;;;;;;;14.96;41.20;98162.84;10497272;28;20070;-76
2022/05/14 03:06:27;;;;;;;2.83;0.60;;;;;;;14.95;41.10;98160.63;10496612;28;20051;-76
2022/05/14 03:11:47;;;;;;;3.17;0.57;;;;;;;14.92;41.47;98161.88;10508377;28;20097;-76
2022/05/14 03:17:13;;;;;;;4.47;0.68;;;;;;;14.83;41.26;98160.66;10497333;28;20048;-76
2022/05/14 03:22:35;;;;;;;2.40;0.52;;;;;;;14.74;41.59;98155.94;10493869;28;20486;-77
2022/05/14 03:28:24;;;;;;;3.00;0.63;;;;;;;14.71;41.92;98166.31;10506804;28;20044;-76
2022/05/14 03:33:47;;;;;;;5.30;0.60;;;;;;;14.76;42.02;98162.38;10491257;28;20451;-75
2022/05/14 03:39:36;;;;;;;2.05;0.60;;;;;;;14.80;42.07;98161.91;10527940;28;20044;-76
2022/05/14 03:45:00;;;;;;;3.20;0.50;;;;;;;14.84;42.04;98167.75;10520448;28;20510;-75
2022/05/14 03:50:49;;;;;;;2.78;0.60;;;;;;;14.85;42.04;98169.22;10533739;28;20044;-76
2022/05/14 03:56:39;;;;;;;4.35;0.75;;;;;;;14.95;42.24;98166.25;10508064;28;20052;-75
2022/05/14 04:02:08;;;;;;;5.05;0.60;;;;;;;15.04;42.25;98168.16;10501465;28;20518;-75
2022/05/14 04:07:30;;;;;;;3.30;0.65;;;;;;;15.12;42.24;98180.63;10521314;28;20031;-74
2022/05/14 04:12:51;;;;;;;2.22;0.95;;;;;;;15.22;42.28;98177.63;10513772;28;20063;-73
2022/05/14 04:18:11;;;;;;;2.90;0.50;;;;;;;15.36;42.36;98177.72;10493814;28;20071;-73
2022/05/14 04:23:32;;;;;;;3.03;0.60;;;;;;;15.43;42.25;98185.84;10507735;28;20152;-74
2022/05/14 04:28:54;;;;;;;6.95;0.80;;;;;;;15.53;42.31;98182.13;10510746;28;20413;-73
2022/05/14 04:34:15;;;;;;;3.22;0.80;;;;;;;15.60;42.25;98190.31;10510427;28;20405;-73
2022/05/14 04:39:35;;;;;;;3.28;0.80;;;;;;;15.78;42.13;98181.41;10496469;28;20085;-73
2022/05/14 04:44:56;;;;;;;4.30;0.98;;;;;;;15.94;41.74;98187.94;10496078;28;20060;-74
2022/05/14 04:50:18;;;;;;;6.05;0.60;;;;;;;16.07;41.39;98187.22;10497866;28;20489;-72
2022/05/14 04:55:39;;;;;;;2.88;0.60;;;;;;;16.27;41.53;98193.91;10497651;28;20041;-74
2022/05/14 05:01:00;;;;;;;3.83;0.65;;;;;;;16.48;41.29;98189.31;10513491;28;20485;-73
2022/05/14 05:06:23;;;;;;;3.90;0.80;;;;;;;16.76;41.13;98187.97;10511201;28;20032;-73
2022/05/14 05:11:44;;;;;;;2.67;0.57;;;;;;;17.21;40.79;98193.00;10508921;28;20036;-74
2022/05/14 05:17:05;;;;;;;3.90;0.88;;;;;;;17.65;40.45;98188.75;10525460;28;20050;-73
2022/05/14 05:22:26;;;;;;;6.10;1.08;;;;;;;18.17;39.67;98186.94;10497959;28;20085;-73
2022/05/14 05:27:47;;;;;;;3.22;0.95;;;;;;;18.52;39.46;98194.81;10513577;28;20051;-73
2022/05/14 05:33:10;;;;;;;4.35;1.00;;;;;;;19.01;38.58;98202.59;10514003;28;20055;-73
2022/05/14 05:38:31;;;;;;;6.33;1.10;;;;;;;19.66;38.61;98193.88;10499240;28;20044;-73
2022/05/14 05:43:52;;;;;;;2.30;0.63;;;;;;;20.62;37.80;98211.63;10513046;28;20433;-73
2022/05/14 05:49:13;;;;;;;3.40;0.65;;;;;;;21.66;36.20;98209.44;10513369;28;20047;-73
2022/05/14 06:00:16;;;;;;;3.70;0.70;;;;;;;24.31;33.07;98202.84;10529984;28;20044;-75
2022/05/14 06:05:41;;;;;;;4.28;0.70;;;;;;;25.59;30.39;98207.31;10511653;28;20036;-75
2022/05/14 06:11:02;;;;;;;5.65;0.90;;;;;;;26.95;28.94;98202.63;10498532;28;20059;-73
2022/05/14 06:16:23;;;;;;;4.78;0.73;;;;;;;27.84;26.37;98205.56;10497652;28;20048;-76
2022/05/14 06:21:44;;;;;;;4.03;0.80;;;;;;;28.88;24.40;98209.59;10511754;28;20044;-75
2022/05/14 06:27:05;;;;;;;8.45;1.10;;;;;;;29.70;23.23;98213.28;10483918;28;20101;-77
2022/05/14 06:32:26;;;;;;;4.22;0.85;;;;;;;30.82;22.29;98215.13;10511486;28;20401;-77
2022/05/14 06:37:46;;;;;;;;;;;;;;;31.69;18.77;98213.78;10510600;28;20481;-76
2022/05/14 06:43:07;;;;;;;3.00;0.70;;;;;;;32.84;18.59;98219.75;10511076;28;20364;-77
2022/05/14 06:48:28;;;;;;;3.17;0.50;;;;;;;33.75;17.56;98221.22;10481950;28;20052;-78
2022/05/14 06:53:49;;;;;;;3.88;0.47;;;;;;;34.64;17.06;98223.88;10510805;28;20037;-77
2022/05/14 06:59:10;;;;;;;3.05;0.40;;;;;;;35.11;15.92;98229.38;10511538;28;20158;-79
2022/05/14 07:10:11;;;;;;;2.90;0.50;;;;;;;36.94;14.26;98232.56;10501393;28;20044;-78
2022/05/14 07:15:32;;;;;;;4.32;0.60;;;;;;;36.21;13.71;98234.66;10499101;28;20129;-77
2022/05/14 07:20:53;;;;;;;3.05;0.60;;;;;;;35.94;14.31;98232.47;10504388;28;20367;-78
2022/05/14 07:26:14;;;;;;;3.25;0.60;;;;;;;37.59;13.46;98235.63;10477480;28;20045;-77
2022/05/14 07:31:35;;;;;;;3.45;0.50;;;;;;;39.64;12.49;98236.03;10476593;28;20037;-76
2022/05/14 07:37:06;;;;;;;2.17;0.50;;;;;;;40.82;10.71;98231.53;10463231;28;20429;-76
2022/05/14 07:42:29;;;;;;;3.90;1.02;;;;;;;42.73;9.31;98230.00;10476405;28;20044;-76
2022/05/14 07:47:51;;;;;;;2.55;0.45;;;;;;;47.85;7.80;98230.44;10476746;28;20536;-79
2022/05/14 07:53:15;;;;;;;2.20;0.40;;;;;;;51.46;5.20;98235.84;10476001;28;20049;-78
2022/05/14 07:58:39;;;;;;;3.00;0.70;;;;;;;53.61;4.35;98229.19;10445661;28;20130;-78
2022/05/14 08:04:00;;;;;;;0.90;0.35;;;;;;;54.68;3.18;98224.91;10475627;28;20051;-77
2022/05/14 08:09:21;;;;;;;1.02;0.38;;;;;;;55.61;2.38;98217.78;10475086;28;20147;-78
2022/05/14 08:14:56;;;;;;;2.80;0.70;;;;;;;56.08;2.08;98206.63;10461503;28;20036;-79
2022/05/14 08:20:18;;;;;;;3.15;0.60;;;;;;;56.69;1.68;98196.66;10476309;28;20043;-78
2022/05/14 08:25:39;;;;;;;4.38;0.70;;;;;;;55.59;2.13;98205.34;10460227;28;20407;-77
2022/05/14 08:31:04;;;;;;;2.90;0.70;;;;;;;55.35;2.44;98199.75;10462078;28;20067;-78
2022/05/14 08:36:29;;;;;;;4.90;0.80;;;;;;;56.83;1.94;98205.59;10461785;28;20065;-76
2022/05/14 08:41:51;;;;;;;2.13;0.90;;;;;;;57.42;1.26;98202.41;10460510;28;20043;-77
2022/05/14 08:47:25;;;;;;;2.83;1.10;;;;;;;57.84;1.03;98201.94;10405337;28;20049;-76
2022/05/14 08:52:46;;;;;;;3.22;1.40;;;;;;;56.75;1.36;98192.94;10391842;28;20120;-76
2022/05/14 08:58:10;;;;;;;3.40;1.80;;;;;;;57.66;1.48;98201.81;10390989;28;20041;-79
2022/05/14 09:03:32;;;;;;;3.67;1.65;;;;;;;57.61;1.20;98188.91;10401963;28;20042;-79
2022/05/14 09:08:53;;;;;;;5.87;2.20;;;;;;;58.03;1.48;98185.41;10415171;28;20471;-81
2022/05/14 09:14:24;;;;;;;5.33;2.50;;;;;;;57.47;1.20;98182.28;10431735;28;20637;-79
2022/05/14 09:19:45;;;;;;;4.10;2.60;;;;;;;57.67;1.42;98181.50;10444807;28;20789;-78
2022/05/14 09:25:17;;;;;;;3.95;2.75;;;;;;;57.42;1.01;98181.38;10446080;28;20037;-78
2022/05/14 09:30:43;;;;;;;5.25;2.60;;;;;;;57.16;1.07;98169.53;10459415;28;20123;-78
2022/05/14 09:36:12;;;;;;;3.08;2.30;;;;;;;57.06;1.29;98165.44;10431174;28;20052;-78
2022/05/14 09:41:45;;;;;;;5.55;2.97;;;;;;;57.73;1.30;98165.75;10431375;28;20068;-78
2022/05/14 09:47:30;;;;;;;3.80;2.72;;;;;;;57.33;0.92;98154.69;10444270;28;20087;-77
2022/05/14 09:53:05;;;;;;;4.97;3.33;;;;;;;56.83;1.02;98157.66;10432627;28;20057;-79
2022/05/14 09:58:42;;;;;;;3.25;1.90;;;;;;;55.10;1.43;98138.91;10443502;28;20067;-80
2022/05/14 10:04:06;;;;;;;2.50;1.70;;;;;;;54.52;2.17;98131.72;10430513;28;20045;-79
2022/05/14 10:09:45;;;;;;;3.63;1.40;;;;;;;54.15;1.87;98126.66;10443667;28;20503;-78
2022/05/14 10:15:46;;;;;;;3.10;1.35;;;;;;;53.96;2.19;98124.19;10417108;28;20037;-79
2022/05/14 10:21:20;;;;;;;1.83;1.33;;;;;;;53.88;1.99;98113.81;10400873;28;20114;-75
2022/05/14 10:27:02;;;;;;;4.13;1.20;;;;;;;54.52;1.56;98111.50;10456473;28;20060;-76
2022/05/14 10:32:29;;;;;;;1.85;1.23;;;;;;;53.95;1.94;98113.84;10442277;28;20041;-77
2022/05/14 10:37:59;;;;;;;2.53;1.10;;;;;;;53.55;1.76;98110.50;10429681;28;20041;-78
2022/05/14 10:43:33;;;;;;;2.28;0.80;;;;;;;52.83;2.69;98107.38;10452443;28;20060;-80
2022/05/14 10:49:15;;;;;;;2.25;0.55;;;;;;;50.33;3.30;98098.94;10510688;28;20485;-79
2022/05/14 10:54:36;;;;;;;2.63;0.40;;;;;;;50.30;3.14;98089.53;10522251;28;20489;-79
2022/05/14 11:00:39;;;;;;;3.58;0.40;;;;;;;45.95;4.74;98086.41;10483874;28;20048;-77
2022/05/14 11:06:02;;;;;;;1.15;0.30;;;;;;;42.69;6.29;98082.81;10490071;28;20497;-77
2022/05/14 11:11:28;;;;;;;2.08;0.40;;;;;;;39.37;7.64;98076.53;10519966;28;20490;-78
2022/05/14 11:16:51;;;;;;;5.88;0.80;;;;;;;36.83;9.45;98077.31;10492719;28;20088;-76
2022/05/14 11:22:29;;;;;;;3.22;0.80;;;;;;;36.08;10.53;98083.19;10492782;28;20039;-77
2022/05/14 11:28:07;;;;;;;3.47;0.50;;;;;;;36.53;10.89;98085.50;10521243;28;20499;-76
2022/05/14 11:33:32;;;;;;;3.22;0.35;;;;;;;35.79;10.81;98077.47;10520868;28;20474;-75
2022/05/14 11:39:08;;;;;;;3.17;0.35;;;;;;;35.11;11.41;98074.94;10505047;28;20551;-76
2022/05/14 11:44:50;;;;;;;2.35;0.38;;;;;;;34.36;12.04;98075.22;10490495;28;20048;-75
2022/05/14 11:50:13;;;;;;;3.75;0.45;;;;;;;33.93;12.52;98074.72;10491919;28;20051;-79
2022/05/14 11:55:58;;;;;;;3.13;0.35;;;;;;;33.38;13.80;98072.84;10505033;28;20085;-79
2022/05/14 12:01:25;;;;;;;3.30;0.38;;;;;;;33.40;13.41;98067.06;10492919;28;20040;-80
2022/05/14 12:07:10;;;;;;;3.88;0.75;;;;;;;33.43;13.45;98054.69;10514992;28;20046;-82
2022/05/14 12:13:02;;;;;;;3.15;0.50;;;;;;;33.33;13.89;98051.25;10530299;28;20447;-80
2022/05/14 12:18:23;;;;;;;3.05;0.50;;;;;;;32.98;14.45;98055.44;10528631;28;20032;-76
2022/05/14 12:23:46;;;;;;;2.13;0.40;;;;;;;33.42;14.27;98052.53;10501684;28;20487;-78
2022/05/14 12:29:20;;;;;;;7.50;1.15;;;;;;;33.20;14.55;98044.94;10514822;28;20051;-80
2022/05/14 12:34:41;;;;;;;6.32;0.50;;;;;;;33.67;14.10;98036.13;10524167;28;20036;-77
2022/05/14 12:40:02;;;;;;;4.47;0.40;;;;;;;33.78;13.65;98025.78;10497921;28;20079;-78
2022/05/14 12:45:34;;;;;;;2.60;0.40;;;;;;;33.84;13.51;98019.13;10505934;28;20040;-77
2022/05/14 12:50:56;;;;;;;2.33;0.85;;;;;;;33.62;14.06;98023.22;10514386;28;20046;-80
2022/05/14 12:56:18;;;;;;;2.55;0.30;;;;;;;33.56;14.21;98018.25;10515178;28;20119;-81
2022/05/14 13:01:39;;;;;;;4.55;0.45;;;;;;;34.02;13.85;98020.97;10513789;28;20126;-79
2022/05/14 13:07:00;;;;;;;1.75;0.40;;;;;;;33.77;13.57;98004.06;10498503;28;20055;-78
2022/05/14 13:12:24;;;;;;;3.95;0.30;;;;;;;33.53;13.55;98008.19;10512263;28;20375;-77
2022/05/14 13:17:46;;;;;;;2.10;0.40;;;;;;;33.02;13.45;97996.88;10496568;28;20477;-77
2022/05/14 13:23:20;;;;;;;2.58;0.40;;;;;;;32.70;13.75;97993.03;10512095;28;20040;-77
2022/05/14 13:28:41;;;;;;;4.13;0.82;;;;;;;32.68;13.84;97995.25;10458079;28;20663;-76
2022/05/14 13:39:45;;;;;;;3.35;0.47;;;;;;;31.89;14.16;97982.72;10473748;28;19924;-79
2022/05/14 13:45:10;;;;;;;3.53;0.52;;;;;;;31.54;14.74;97968.69;10470330;28;20056;-77
2022/05/14 13:50:36;;;;;;;2.25;0.40;;;;;;;31.48;15.15;97971.69;10456954;28;20048;-80
2022/05/14 13:56:08;;;;;;;3.58;0.52;;;;;;;31.36;15.46;97962.44;10501349;28;20044;-76
2022/05/14 14:01:45;;;;;;;5.15;0.60;;;;;;;31.10;16.03;97969.22;10511882;28;20060;-77
2022/05/14 14:07:07;;;;;;;3.42;0.40;;;;;;;30.68;16.43;97957.34;10512498;28;20044;-79
2022/05/14 14:12:27;;;;;;;6.53;0.38;;;;;;;30.39;16.64;97962.59;10498660;28;20056;-83
2022/05/14 14:17:49;;;;;;;4.00;0.80;;;;;;;30.25;17.00;97956.97;10497565;28;20473;-79
2022/05/14 14:23:13;;;;;;;6.13;0.73;;;;;;;30.14;17.10;97952.75;10469968;28;20115;-78
2022/05/14 14:28:35;;;;;;;3.53;0.43;;;;;;;29.92;17.10;97954.31;10456424;28;20054;-76
2022/05/14 14:33:56;;;;;;;2.85;0.40;;;;;;;29.70;17.39;97947.94;10456142;28;20045;-79
2022/05/14 14:39:17;;;;;;;2.05;0.60;;;;;;;29.53;17.89;97956.66;10456084;28;20482;-76
2022/05/14 14:44:39;;;;;;;5.00;1.92;;;;;;;29.54;18.27;97957.38;10495216;28;20509;-75
2022/05/14 14:50:02;;;;;;;3.65;1.17;;;;;;;29.45;18.66;97953.06;10481454;28;20475;-74
2022/05/14 14:55:23;;;;;;;4.60;0.63;;;;;;;28.74;19.34;97957.53;10496671;28;20032;-75
2022/05/14 15:00:46;;;;;;;2.30;0.52;;;;;;;28.52;20.06;97966.16;10493713;28;20042;-78
2022/05/14 15:06:09;;;;;;;2.70;0.68;;;;;;;28.29;20.40;97953.97;10497734;28;20119;-84
2022/05/14 15:11:30;;;;;;;2.78;0.50;;;;;;;28.18;20.42;97950.38;10497005;28;20040;-77
2022/05/14 15:16:52;;;;;;;2.20;0.40;;;;;;;28.19;20.97;97951.78;10482978;28;20398;-85
2022/05/14 15:22:13;;;;;;;8.53;0.63;;;;;;;28.30;20.61;97946.09;10486610;28;20036;-84
2022/05/14 15:27:35;;;;;;;3.60;0.50;;;;;;;28.43;21.08;97950.38;10496880;28;20093;-83
2022/05/14 15:32:56;;;;;;;4.43;0.82;;;;;;;28.40;21.19;97952.53;10511054;28;20090;-79
2022/05/14 15:38:18;;;;;;;5.20;0.60;;;;;;;28.30;20.93;97946.09;10503269;28;20040;-85
2022/05/14 15:43:42;;;;;;;4.03;0.50;;;;;;;28.27;20.97;97944.59;10504388;28;20075;-75
2022/05/14 15:49:12;;;;;;;3.45;0.93;;;;;;;28.06;20.99;97935.97;10518416;28;20051;-74
2022/05/14 15:54:34;;;;;;;2.38;0.40;;;;;;;28.09;20.79;97946.03;10517510;28;20052;-77
2022/05/14 15:59:56;;;;;;;1.85;0.40;;;;;;;27.95;21.01;97941.00;10503775;28;20040;-78
2022/05/14 16:05:18;;;;;;;1.80;0.30;;;;;;;27.89;20.86;97934.50;10503644;28;20497;-82
2022/05/14 16:16:19;;;;;;;2.60;0.40;;;;;;;27.86;20.93;97925.19;10522423;28;20047;-77
2022/05/14 16:21:40;;;;;;;4.17;0.60;;;;;;;27.79;20.77;97934.50;10515269;28;20032;-79
2022/05/14 16:27:01;;;;;;;5.72;0.50;;;;;;;27.51;20.67;97935.13;10528914;28;20405;-77
2022/05/14 16:32:23;;;;;;;;;;;;;;;27.36;20.50;97934.34;10503308;28;20094;-76
2022/05/14 16:37:44;;;;;;;3.47;0.60;;;;;;;27.11;20.72;97936.38;10516448;28;19927;-76
2022/05/14 16:43:05;;;;;;;4.65;0.90;;;;;;;26.72;20.95;97949.72;10501580;28;20055;-77
2022/05/14 16:48:27;;;;;;;4.20;0.85;;;;;;;26.62;20.99;97938.19;10501046;28;20051;-75
2022/05/14 16:53:53;;;;;;;2.75;0.50;;;;;;;26.48;20.83;97944.53;10501412;28;20044;-77
2022/05/14 16:59:14;;;;;;;3.45;0.57;;;;;;;26.27;20.99;97943.63;10502783;28;20123;-76
2022/05/14 17:04:35;;;;;;;4.65;0.63;;;;;;;26.03;21.40;97947.00;10473178;28;20043;-75
2022/05/14 17:09:56;;;;;;;5.30;0.82;;;;;;;26.06;20.99;97951.31;10448653;28;20397;-76
2022/05/14 17:15:17;;;;;;;3.35;0.57;;;;;;;25.87;21.25;97949.69;10500278;28;20371;-77
2022/05/14 17:20:39;;;;;;;2.60;1.05;;;;;;;25.73;21.54;97963.84;10513056;28;20044;-80
2022/05/14 17:26:00;;;;;;;2.90;0.50;;;;;;;25.52;21.64;97952.16;10484682;28;20037;-78
2022/05/14 17:31:23;;;;;;;3.35;0.88;;;;;;;25.32;22.10;97963.34;10458795;28;20044;-77
2022/05/14 17:42:24;;;;;;;5.10;0.90;;;;;;;24.89;22.71;97974.13;10516507;28;20079;-79
2022/05/14 17:47:45;;;;;;;4.72;1.05;;;;;;;24.71;23.23;97980.31;10498909;28;20097;-77
2022/05/14 17:53:06;;;;;;;5.15;0.90;;;;;;;24.63;23.05;97991.59;10456704;28;20052;-76
2022/05/14 17:58:27;;;;;;;5.07;0.93;;;;;;;24.39;23.37;97996.88;10456149;28;20049;-78
2022/05/14 18:03:53;;;;;;;7.68;0.90;;;;;;;24.23;23.54;98000.91;10504746;28;20411;-79
2022/05/14 18:09:15;;;;;;;4.60;0.60;;;;;;;24.04;23.83;98006.94;10497245;28;20393;-73
2022/05/14 18:14:36;;;;;;;2.60;0.73;;;;;;;23.95;24.17;98015.34;10518390;28;20071;-76
2022/05/14 18:19:59;;;;;;;6.57;0.65;;;;;;;23.88;24.00;98028.03;10511557;28;20133;-76
2022/05/14 18:25:20;;;;;;;3.45;1.10;;;;;;;23.78;24.43;98024.25;10512625;28;20063;-76
2022/05/14 18:30:40;;;;;;;2.42;0.70;;;;;;;23.64;24.71;98028.28;10511296;28;20067;-78
2022/05/14 18:36:02;;;;;;;4.30;0.98;;;;;;;23.54;24.77;98035.84;10497395;28;20093;-80
2022/05/14 18:41:36;;;;;;;3.80;0.75;;;;;;;23.32;25.30;98044.63;10510459;28;20040;-79
2022/05/14 18:46:56;;;;;;;8.18;1.08;;;;;;;23.23;25.59;98045.84;10497323;28;20366;-78
2022/05/14 18:52:18;;;;;;;7.00;1.60;;;;;;;23.07;25.45;98054.78;10539812;28;20048;-77
2022/05/14 18:57:39;;;;;;;5.57;1.35;;;;;;;22.95;25.63;98049.50;10510679;28;20119;-77
2022/05/14 19:03:00;;;;;;;6.07;1.73;;;;;;;22.72;26.03;98067.41;10510576;28;20036;-77
2022/05/14 19:08:21;;;;;;;5.65;2.25;;;;;;;22.52;26.47;98082.56;10496293;28;20040;-77
2022/05/14 19:13:42;;;;;;;8.85;2.47;;;;;;;22.41;26.66;98086.56;10531353;28;20040;-76
2022/05/14 19:19:04;;;;;;;5.57;2.30;;;;;;;22.38;27.11;98087.88;10515468;28;20489;-77
2022/05/14 19:24:25;;;;;;;6.07;2.20;;;;;;;22.16;27.33;98095.81;10510681;28;20051;-76
2022/05/14 19:29:45;;;;;;;7.60;2.15;;;;;;;22.15;27.65;98100.06;10495573;28;20051;-77
2022/05/14 19:35:06;;;;;;;14.70;6.53;;;;;;;22.13;27.88;98102.84;10518401;28;20047;-76
2022/05/14 19:40:49;;;;;;;7.60;1.70;;;;;;;22.09;28.22;98105.56;10488514;28;20432;-75
2022/05/14 19:46:13;;;;;;;6.17;1.43;;;;;;;22.03;28.25;98105.38;10506943;28;20063;-75
2022/05/14 19:51:34;;;;;;;7.15;1.30;;;;;;;21.92;28.62;98113.63;10518036;28;20325;-76
2022/05/14 19:56:54;;;;;;;4.32;1.40;;;;;;;21.82;28.87;98119.00;10503892;28;20048;-76
2022/05/14 20:02:20;;;;;;;4.03;1.40;;;;;;;21.75;29.29;98125.91;10518551;28;20047;-76
2022/05/14 20:07:40;;;;;;;5.22;1.15;;;;;;;21.70;29.62;98133.56;10515023;28;20394;-74
2022/05/14 20:13:02;;;;;;;6.75;1.67;;;;;;;21.71;29.53;98131.44;10516953;28;20036;-74
2022/05/14 20:24:02;;;;;;;6.18;1.38;;;;;;;21.53;29.83;98145.84;10520001;28;20052;-75
2022/05/14 20:29:23;;;;;;;6.78;1.27;;;;;;;21.44;30.44;98152.66;10499552;28;20072;-78
2022/05/14 20:34:44;;;;;;;6.85;1.30;;;;;;;21.45;30.33;98144.88;10495120;28;20059;-76
2022/05/14 20:40:05;;;;;;;4.13;1.65;;;;;;;21.32;30.65;98149.41;10538819;28;20441;-74
2022/05/14 20:45:26;;;;;;;5.38;1.23;;;;;;;21.29;30.65;98159.28;10511833;28;20072;-75
2022/05/14 20:50:47;;;;;;;3.72;1.38;;;;;;;21.24;31.10;98157.69;10497587;28;20169;-74
2022/05/14 20:56:07;;;;;;;6.35;1.42;;;;;;;21.21;30.96;98164.66;10526454;28;20370;-74
2022/05/14 21:01:28;;;;;;;4.72;1.67;;;;;;;21.11;31.08;98168.63;10469401;28;20044;-74
2022/05/14 21:06:49;;;;;;;4.18;1.67;;;;;;;21.03;31.34;98162.66;10459639;28;20079;-76
2022/05/14 21:12:10;;;;;;;4.65;1.50;;;;;;;20.95;31.43;98175.88;10459289;28;20040;-74
2022/05/14 21:17:31;;;;;;;3.75;1.38;;;;;;;20.75;31.66;98170.97;10459657;28;20051;-74
2022/05/14 21:22:52;;;;;;;5.07;1.98;;;;;;;20.65;31.98;98169.88;10472648;28;20107;-75
2022/05/14 21:28:12;;;;;;;6.90;2.25;;;;;;;20.57;31.73;98176.00;10458489;28;20403;-74
2022/05/14 21:33:33;;;;;;;5.28;1.77;;;;;;;20.46;32.43;98171.34;10483996;28;20075;-74
2022/05/14 21:38:54;;;;;;;6.90;1.58;;;;;;;20.36;32.65;98168.13;10472032;28;20055;-76
2022/05/14 21:44:15;;;;;;;3.90;1.50;;;;;;;20.27;33.19;98164.28;10455574;28;20475;-74
2022/05/14 21:49:35;;;;;;;5.75;2.00;;;;;;;20.15;33.29;98172.34;10458025;28;20086;-74
2022/05/14 21:54:56;;;;;;;3.78;1.48;;;;;;;19.99;33.16;98166.81;10457603;28;20063;-74
2022/05/14 22:00:20;;;;;;;7.70;2.05;;;;;;;19.92;33.50;98176.44;10498140;28;20067;-75
2022/05/14 22:05:41;;;;;;;11.90;6.20;;;;;;;19.81;34.02;98164.00;10522540;28;20043;-74
2022/05/14 22:11:02;;;;;;;7.28;2.20;;;;;;;19.72;34.29;98162.97;10508704;28;20040;-74
2022/05/14 22:16:23;;;;;;;4.18;1.40;;;;;;;19.60;34.52;98171.00;10508433;28;20063;-74
2022/05/14 22:21:44;;;;;;;5.03;1.50;;;;;;;19.38;34.74;98172.91;10494875;28;20066;-74
2022/05/14 22:27:05;;;;;;;3.78;1.40;;;;;;;19.38;35.00;98173.66;10508393;28;20067;-74
2022/05/14 22:32:25;;;;;;;7.05;1.73;;;;;;;19.37;34.96;98177.84;10522584;28;20573;-76
2022/05/14 22:37:46;;;;;;;5.10;1.85;;;;;;;19.30;35.42;98176.19;10494436;28;20040;-78
2022/05/14 22:43:09;;;;;;;4.70;1.77;;;;;;;19.14;35.63;98181.91;10492179;28;20086;-74
2022/05/14 22:48:31;;;;;;;6.22;1.90;;;;;;;19.16;35.86;98184.06;10501997;28;20067;-74
2022/05/14 22:53:52;;;;;;;4.32;1.35;;;;;;;19.15;36.10;98180.53;10496894;28;20067;-74
2022/05/14 22:59:13;;;;;;;4.82;1.52;;;;;;;19.16;35.98;98184.81;10511047;28;20121;-74
2022/05/14 23:04:33;;;;;;;7.55;1.60;;;;;;;19.19;35.65;98194.09;10426354;22;20658;-74
2022/05/14 23:09:53;;;;;;;6.18;1.70;;;;;;;19.11;36.03;98194.50;10373187;28;20084;-74
2022/05/14 23:15:15;;;;;;;6.75;1.55;;;;;;;19.03;36.22;98194.19;10359482;28;20088;-73
2022/05/14 23:20:37;;;;;;;3.95;1.73;;;;;;;18.97;36.10;98191.09;10360063;28;20070;-74
2022/05/14 23:25:58;;;;;;;6.33;1.50;;;;;;;18.98;36.55;98198.19;10332555;28;20046;-74
2022/05/14 23:31:18;;;;;;;5.47;1.50;;;;;;;18.98;36.26;98198.19;10359233;28;20081;-74
2022/05/14 23:36:39;;;;;;;5.60;1.73;;;;;;;18.86;36.34;98204.06;10357031;28;20069;-74
2022/05/14 23:42:00;;;;;;;6.38;1.67;;;;;;;18.76;36.85;98188.78;10358617;28;20073;-74
2022/05/14 23:47:20;;;;;;;3.13;1.33;;;;;;;18.72;36.92;98188.59;10372874;28;20101;-73
2022/05/14 23:52:41;;;;;;;4.20;1.60;;;;;;;18.69;36.72;98184.97;10358797;28;20172;-73
